Time,TemperatureF,DewpointF,PressureIn,WindDirection,WindDirectionDegrees,WindSpeedMPH,WindSpeedGustMPH,Humidity,HourlyPrecipIn,Conditions,Clouds,dailyrainin,SoftwareType,DateUTC
2013-02-15 00:05:00,43.2,39.0,30.24,ENE,72,0.0,0.0,85,0.00,,,0.00,Wunderground v.1.15,2013-02-14 10:05:00,
2013-02-15 00:15:00,43.2,39.0,30.23,ENE,74,0.0,1.0,85,0.00,,,0.00,Wunderground v.1.15,2013-02-14 10:15:00,
2013-02-15 00:24:00,43.2,39.0,30.23,ENE,73,0.0,0.0,85,0.00,,,0.00,Wunderground v.1.15,2013-02-14 10:24:00,
2013-02-15 00:30:00,42.9,38.7,30.24,ENE,74,0.0,0.0,85,0.00,,,0.00,Wunderground v.1.15,2013-02-14 10:30:00,
2013-02-15 00:39:00,42.9,39.0,30.23,NE,54,0.0,0.0,86,0.00,,,0.00,Wunderground v.1.15,2013-02-14 10:39:00,
2013-02-15 00:50:00,42.8,39.2,30.24,NE,54,0.0,0.0,87,0.00,,,0.00,Wunderground v.1.15,2013-02-14 10:50:00,
2013-02-15 00:59:00,42.7,38.8,30.23,NE,54,0.0,0.0,86,0.00,,,0.00,Wunderground v.1.15,2013-02-14 10:59:00,
2013-02-15 01:05:00,42.4,38.5,30.23,NE,53,0.0,0.0,86,0.00,,,0.00,Wunderground v.1.15,2013-02-14 11:05:00,
2013-02-15 01:15:00,42.0,38.4,30.23,NNE,33,0.0,1.0,87,0.00,,,0.00,Wunderground v.1.15,2013-02-14 11:15:00,
2013-02-15 01:24:00,41.6,38.0,30.23,NNE,33,0.0,0.0,87,0.00,,,0.00,Wunderground v.1.15,2013-02-14 11:24:00,
2013-02-15 01:30:00,41.2,37.6,30.23,NE,34,0.0,0.0,87,0.00,,,0.00,Wunderground v.1.15,2013-02-14 11:30:00,
2013-02-15 01:35:00,40.7,37.1,30.23,NNE,33,0.0,0.0,87,0.00,,,0.00,Wunderground v.1.15,2013-02-14 11:35:00,
2013-02-15 01:45:00,40.0,37.0,30.23,NNE,33,0.0,0.0,89,0.00,,,0.00,Wunderground v.1.15,2013-02-14 11:45:00,
2013-02-15 01:54:00,39.8,37.4,30.23,NNE,33,0.0,0.0,91,0.00,,,0.00,Wunderground v.1.15,2013-02-14 11:54:00,
2013-02-15 01:59:00,39.9,37.5,30.23,NNE,33,0.0,0.0,91,0.00,,,0.00,Wunderground v.1.15,2013-02-14 11:59:00,
2013-02-15 02:05:00,39.7,37.0,30.22,NNE,33,0.0,0.0,90,0.00,,,0.00,Wunderground v.1.15,2013-02-14 12:05:00,
2013-02-15 02:14:00,39.5,37.1,30.22,NNE,33,0.0,0.0,91,0.00,,,0.00,Wunderground v.1.15,2013-02-14 12:14:00,
2013-02-15 02:25:00,39.6,37.2,30.22,NNE,33,0.0,0.0,91,0.00,,,0.00,Wunderground v.1.15,2013-02-14 12:25:00,
2013-02-15 02:29:00,40.0,37.9,30.22,East,99,0.0,0.0,92,0.00,,,0.00,Wunderground v.1.15,2013-02-14 12:29:00,
2013-02-15 02:35:00,40.4,38.3,30.22,East,85,0.0,0.0,92,0.00,,,0.00,Wunderground v.1.15,2013-02-14 12:35:00,
2013-02-15 02:45:00,40.3,37.9,30.22,East,84,0.0,0.0,91,0.00,,,0.00,Wunderground v.1.15,2013-02-14 12:45:00,
2013-02-15 02:54:00,40.1,37.7,30.22,East,85,0.0,0.0,91,0.00,,,0.00,Wunderground v.1.15,2013-02-14 12:54:00,
2013-02-15 03:00:00,39.9,37.5,30.22,East,85,0.0,0.0,91,0.00,,,0.00,Wunderground v.1.15,2013-02-14 13:00:00,
2013-02-15 03:05:00,39.5,36.8,30.22,East,84,0.0,0.0,90,0.00,,,0.00,Wunderground v.1.15,2013-02-14 13:05:00,
2013-02-15 03:14:00,39.4,37.3,30.22,East,85,0.0,0.0,92,0.00,,,0.00,Wunderground v.1.15,2013-02-14 13:14:00,
2013-02-15 03:24:00,39.6,37.5,30.22,ESE,117,0.0,1.0,92,0.00,,,0.00,Wunderground v.1.15,2013-02-14 13:24:00,
2013-02-15 03:34:00,39.8,37.7,30.22,East,84,0.0,0.0,92,0.00,,,0.00,Wunderground v.1.15,2013-02-14 13:34:00,
2013-02-15 03:40:00,40.1,38.0,30.22,ESE,103,1.0,1.0,92,0.00,,,0.00,Wunderground v.1.15,2013-02-14 13:40:00,
2013-02-15 03:49:00,40.4,38.0,30.22,East,83,2.0,2.0,91,0.00,,,0.00,Wunderground v.1.15,2013-02-14 13:49:00,
2013-02-15 03:55:00,40.7,38.0,30.23,East,86,2.0,3.0,90,0.00,,,0.00,Wunderground v.1.15,2013-02-14 13:55:00,
2013-02-15 04:05:00,40.7,37.7,30.23,East,82,3.0,3.0,89,0.00,,,0.00,Wunderground v.1.15,2013-02-14 14:05:00,
2013-02-15 04:14:00,40.2,37.5,30.22,East,82,0.0,2.0,90,0.00,,,0.00,Wunderground v.1.15,2013-02-14 14:14:00,
2013-02-15 04:19:00,40.1,37.4,30.23,East,89,0.0,0.0,90,0.00,,,0.00,Wunderground v.1.15,2013-02-14 14:19:00,
2013-02-15 04:25:00,40.0,37.3,30.23,East,90,0.0,0.0,90,0.00,,,0.00,Wunderground v.1.15,2013-02-14 14:25:00,
2013-02-15 04:34:00,39.6,37.2,30.23,East,90,0.0,0.0,91,0.00,,,0.00,Wunderground v.1.15,2013-02-14 14:34:00,
2013-02-15 04:40:00,39.5,37.1,30.23,East,87,0.0,0.0,91,0.00,,,0.00,Wunderground v.1.15,2013-02-14 14:40:00,
2013-02-15 04:49:00,39.3,36.9,30.23,ESE,103,0.0,0.0,91,0.00,,,0.00,Wunderground v.1.15,2013-02-14 14:49:00,
2013-02-15 04:55:00,39.2,37.1,30.24,ESE,112,0.0,0.0,92,0.00,,,0.00,Wunderground v.1.15,2013-02-14 14:55:00,
2013-02-15 05:05:00,38.9,36.8,30.24,ESE,112,0.0,0.0,92,0.00,,,0.00,Wunderground v.1.15,2013-02-14 15:05:00,
2013-02-15 05:14:00,39.1,37.2,30.24,ESE,112,0.0,0.0,93,0.00,,,0.00,Wunderground v.1.15,2013-02-14 15:14:00,
2013-02-15 05:24:00,39.8,37.4,30.24,ESE,112,0.0,0.0,91,0.00,,,0.00,Wunderground v.1.15,2013-02-14 15:24:00,
2013-02-15 05:34:00,40.0,37.3,30.24,ESE,112,0.0,0.0,90,0.00,,,0.00,Wunderground v.1.15,2013-02-14 15:34:00,
2013-02-15 05:40:00,40.5,38.1,30.25,ESE,112,0.0,0.0,91,0.00,,,0.00,Wunderground v.1.15,2013-02-14 15:40:00,
2013-02-15 05:50:00,41.0,38.0,30.25,ESE,112,0.0,0.0,89,0.00,,,0.00,Wunderground v.1.15,2013-02-14 15:50:00,
2013-02-15 06:00:00,42.6,39.0,30.25,East,94,0.0,1.0,87,0.00,,,0.00,Wunderground v.1.15,2013-02-14 16:00:00,
2013-02-15 06:10:00,43.3,39.4,30.25,ENE,68,2.0,2.0,86,0.00,,,0.00,Wunderground v.1.15,2013-02-14 16:10:00,
2013-02-15 06:19:00,44.4,39.6,30.26,East,82,1.0,2.0,83,0.00,,,0.00,Wunderground v.1.15,2013-02-14 16:19:00,
2013-02-15 06:25:00,44.5,39.7,30.26,ENE,75,2.0,2.0,83,0.00,,,0.00,Wunderground v.1.15,2013-02-14 16:25:00,
2013-02-15 06:34:00,45.2,40.0,30.26,ESE,106,3.0,4.0,82,0.00,,,0.00,Wunderground v.1.15,2013-02-14 16:34:00,
2013-02-15 06:40:00,46.0,40.2,30.26,ESE,107,2.0,2.0,80,0.00,,,0.00,Wunderground v.1.15,2013-02-14 16:40:00,
2013-02-15 06:49:00,46.7,40.5,30.26,ESE,119,2.0,2.0,79,0.00,,,0.00,Wunderground v.1.15,2013-02-14 16:49:00,
2013-02-15 06:55:00,47.1,40.9,30.26,SE,134,2.0,2.0,79,0.00,,,0.00,Wunderground v.1.15,2013-02-14 16:55:00,
2013-02-15 07:05:00,48.3,41.1,30.26,SE,131,2.0,4.0,76,0.00,,,0.00,Wunderground v.1.15,2013-02-14 17:05:00,
2013-02-15 07:14:00,48.7,41.1,30.26,SSE,153,2.0,3.0,75,0.00,,,0.00,Wunderground v.1.15,2013-02-14 17:14:00,
2013-02-15 07:20:00,48.9,41.0,30.26,SW,232,2.0,3.0,74,0.00,,,0.00,Wunderground v.1.15,2013-02-14 17:20:00,
2013-02-15 07:30:00,49.3,41.7,30.25,SE,143,1.0,1.0,75,0.00,,,0.00,Wunderground v.1.15,2013-02-14 17:30:00,
2013-02-15 07:35:00,50.1,42.1,30.26,North,1,0.0,1.0,74,0.00,,,0.00,Wunderground v.1.15,2013-02-14 17:35:00,
2013-02-15 07:45:00,50.8,42.5,30.25,WSW,239,0.0,0.0,73,0.00,,,0.00,Wunderground v.1.15,2013-02-14 17:45:00,
2013-02-15 07:54:00,51.0,41.9,30.26,SW,226,1.0,1.0,71,0.00,,,0.00,Wunderground v.1.15,2013-02-14 17:54:00,
2013-02-15 08:00:00,51.5,42.8,30.26,SSE,155,1.0,1.0,72,0.00,,,0.00,Wunderground v.1.15,2013-02-14 18:00:00,
2013-02-15 08:05:00,52.2,42.7,30.25,NE,39,1.0,1.0,70,0.00,,,0.00,Wunderground v.1.15,2013-02-14 18:05:00,
2013-02-15 08:15:00,52.6,42.7,30.25,East,87,2.0,3.0,69,0.00,,,0.00,Wunderground v.1.15,2013-02-14 18:15:00,
2013-02-15 08:25:00,53.6,42.9,30.25,NNE,25,1.0,2.0,67,0.00,,,0.00,Wunderground v.1.15,2013-02-14 18:25:00,
2013-02-15 08:34:00,53.8,43.1,30.25,WNW,302,1.0,1.0,67,0.00,,,0.00,Wunderground v.1.15,2013-02-14 18:34:00,
2013-02-15 08:40:00,54.4,43.7,30.25,SW,233,1.0,1.0,67,0.00,,,0.00,Wunderground v.1.15,2013-02-14 18:40:00,
2013-02-15 08:49:00,55.5,43.9,30.25,SSE,157,1.0,2.0,65,0.00,,,0.00,Wunderground v.1.15,2013-02-14 18:49:00,
2013-02-15 08:55:00,55.8,43.4,30.25,WSW,238,1.0,2.0,63,0.00,,,0.00,Wunderground v.1.15,2013-02-14 18:55:00,
2013-02-15 09:05:00,56.0,44.0,30.24,WNW,288,1.0,2.0,64,0.00,,,0.00,Wunderground v.1.15,2013-02-14 19:05:00,
2013-02-15 09:14:00,56.1,43.7,30.24,WSW,249,1.0,2.0,63,0.00,,,0.00,Wunderground v.1.15,2013-02-14 19:14:00,
2013-02-15 09:25:00,57.3,44.0,30.23,SSW,205,2.0,2.0,61,0.00,,,0.00,Wunderground v.1.15,2013-02-14 19:25:00,
2013-02-15 09:34:00,58.1,43.4,30.23,West,259,1.0,4.0,58,0.00,,,0.00,Wunderground v.1.15,2013-02-14 19:34:00,
2013-02-15 09:40:00,57.7,42.6,30.23,NW,309,2.0,2.0,57,0.00,,,0.00,Wunderground v.1.15,2013-02-14 19:40:00,
2013-02-15 09:49:00,58.2,43.5,30.23,SSW,207,1.0,1.0,58,0.00,,,0.00,Wunderground v.1.15,2013-02-14 19:49:00,
2013-02-15 09:54:00,58.9,43.7,30.23,SSW,203,2.0,2.0,57,0.00,,,0.00,Wunderground v.1.15,2013-02-14 19:54:00,
2013-02-15 10:05:00,59.3,43.6,30.22,WNW,302,2.0,4.0,56,0.00,,,0.00,Wunderground v.1.15,2013-02-14 20:05:00,
2013-02-15 10:15:00,59.5,44.2,30.21,West,274,2.0,2.0,57,0.00,,,0.00,Wunderground v.1.15,2013-02-14 20:15:00,
2013-02-15 10:25:00,59.9,44.2,30.21,West,272,2.0,3.0,56,0.00,,,0.00,Wunderground v.1.15,2013-02-14 20:25:00,
2013-02-15 10:34:00,60.7,43.9,30.20,NW,311,2.0,2.0,54,0.00,,,0.00,Wunderground v.1.15,2013-02-14 20:34:00,
2013-02-15 10:40:00,61.6,44.3,30.20,North,358,1.0,1.0,53,0.00,,,0.00,Wunderground v.1.15,2013-02-14 20:40:00,
2013-02-15 10:49:00,61.8,43.0,30.20,West,277,2.0,3.0,50,0.00,,,0.00,Wunderground v.1.15,2013-02-14 20:49:00,
2013-02-15 10:55:00,62.3,43.4,30.19,NW,307,2.0,3.0,50,0.00,,,0.00,Wunderground v.1.15,2013-02-14 20:55:00,
2013-02-15 11:05:00,62.9,43.4,30.20,NW,312,2.0,3.0,49,0.00,,,0.00,Wunderground v.1.15,2013-02-14 21:05:00,
2013-02-15 11:14:00,63.8,43.7,30.20,NNE,13,1.0,2.0,48,0.00,,,0.00,Wunderground v.1.15,2013-02-14 21:14:00,
2013-02-15 11:25:00,63.9,43.8,30.19,West,263,2.0,2.0,48,0.00,,,0.00,Wunderground v.1.15,2013-02-14 21:25:00,
2013-02-15 11:34:00,64.8,44.6,30.19,East,83,1.0,2.0,48,0.00,,,0.00,Wunderground v.1.15,2013-02-14 21:34:00,
2013-02-15 11:40:00,65.2,44.5,30.19,North,8,2.0,2.0,47,0.00,,,0.00,Wunderground v.1.15,2013-02-14 21:40:00,
2013-02-15 11:49:00,64.9,45.3,30.19,North,5,2.0,2.0,49,0.00,,,0.00,Wunderground v.1.15,2013-02-14 21:49:00,
2013-02-15 11:55:00,65.0,45.4,30.19,West,278,2.0,2.0,49,0.00,,,0.00,Wunderground v.1.15,2013-02-14 21:55:00,
2013-02-15 12:05:00,65.3,45.6,30.18,West,270,2.0,4.0,49,0.00,,,0.00,Wunderground v.1.15,2013-02-14 22:05:00,
2013-02-15 12:14:00,65.9,45.6,30.18,WNW,298,1.0,3.0,48,0.00,,,0.00,Wunderground v.1.15,2013-02-14 22:14:00,
2013-02-15 12:24:00,66.4,45.5,30.17,SSW,203,2.0,2.0,47,0.00,,,0.00,Wunderground v.1.15,2013-02-14 22:24:00,
2013-02-15 12:34:00,66.9,45.4,30.17,NE,41,2.0,2.0,46,0.00,,,0.00,Wunderground v.1.15,2013-02-14 22:34:00,
2013-02-15 12:40:00,66.6,45.7,30.17,ESE,121,3.0,3.0,47,0.00,,,0.00,Wunderground v.1.15,2013-02-14 22:40:00,
2013-02-15 12:49:00,67.5,46.6,30.17,SE,145,1.0,1.0,47,0.00,,,0.00,Wunderground v.1.15,2013-02-14 22:49:00,
2013-02-15 12:55:00,67.9,46.3,30.17,East,89,2.0,2.0,46,0.00,,,0.00,Wunderground v.1.15,2013-02-14 22:55:00,
2013-02-15 13:05:00,68.2,46.6,30.17,South,183,1.0,3.0,46,0.00,,,0.00,Wunderground v.1.15,2013-02-14 23:05:00,
2013-02-15 13:14:00,69.1,46.3,30.17,East,100,1.0,2.0,44,0.00,,,0.00,Wunderground v.1.15,2013-02-14 23:14:00,
2013-02-15 13:19:00,68.8,46.0,30.17,East,91,2.0,2.0,44,0.00,,,0.00,Wunderground v.1.15,2013-02-14 23:19:00,
2013-02-15 13:29:00,69.0,46.2,30.17,South,169,1.0,1.0,44,0.00,,,0.00,Wunderground v.1.15,2013-02-14 23:29:00,
2013-02-15 13:34:00,69.4,45.9,30.17,ESE,115,1.0,2.0,43,0.00,,,0.00,Wunderground v.1.15,2013-02-14 23:34:00,
2013-02-15 13:40:00,69.3,46.4,30.17,SSE,168,1.0,1.0,44,0.00,,,0.00,Wunderground v.1.15,2013-02-14 23:40:00,
2013-02-15 13:49:00,69.6,46.1,30.17,East,98,2.0,2.0,43,0.00,,,0.00,Wunderground v.1.15,2013-02-14 23:49:00,
2013-02-15 13:54:00,69.3,45.8,30.16,East,100,1.0,2.0,43,0.00,,,0.00,Wunderground v.1.15,2013-02-14 23:54:00,
2013-02-15 14:00:00,69.2,45.7,30.16,East,96,2.0,2.0,43,0.00,,,0.00,Wunderground v.1.15,2013-02-15 00:00:00,
2013-02-15 14:05:00,69.0,46.2,30.16,East,80,1.0,2.0,44,0.00,,,0.00,Wunderground v.1.15,2013-02-15 00:05:00,
2013-02-15 14:10:00,69.0,46.2,30.16,ESE,109,1.0,1.0,44,0.00,,,0.00,Wunderground v.1.15,2013-02-15 00:10:00,
2013-02-15 14:19:00,69.1,45.7,30.16,ENE,77,1.0,1.0,43,0.00,,,0.00,Wunderground v.1.15,2013-02-15 00:19:00,
2013-02-15 14:25:00,69.2,46.4,30.16,ESE,111,1.0,2.0,44,0.00,,,0.00,Wunderground v.1.15,2013-02-15 00:25:00,
2013-02-15 14:34:00,68.1,46.5,30.16,ESE,112,3.0,3.0,46,0.00,,,0.00,Wunderground v.1.15,2013-02-15 00:34:00,
2013-02-15 14:45:00,67.0,46.7,30.16,ESE,104,3.0,3.0,48,0.00,,,0.00,Wunderground v.1.15,2013-02-15 00:45:00,
2013-02-15 14:54:00,65.9,46.7,30.16,SE,136,4.0,5.0,50,0.00,,,0.00,Wunderground v.1.15,2013-02-15 00:54:00,
2013-02-15 15:00:00,65.5,46.4,30.16,SE,131,4.0,4.0,50,0.00,,,0.00,Wunderground v.1.15,2013-02-15 01:00:00,
2013-02-15 15:05:00,65.1,46.0,30.16,SE,124,4.0,5.0,50,0.00,,,0.00,Wunderground v.1.15,2013-02-15 01:05:00,
2013-02-15 15:14:00,64.7,46.1,30.16,ESE,122,3.0,4.0,51,0.00,,,0.00,Wunderground v.1.15,2013-02-15 01:14:00,
2013-02-15 15:25:00,64.3,46.3,30.16,SSE,149,2.0,3.0,52,0.00,,,0.00,Wunderground v.1.15,2013-02-15 01:25:00,
2013-02-15 15:34:00,63.5,46.1,30.17,SE,142,2.0,3.0,53,0.00,,,0.00,Wunderground v.1.15,2013-02-15 01:34:00,
2013-02-15 15:40:00,63.0,46.1,30.16,SE,142,3.0,3.0,54,0.00,,,0.00,Wunderground v.1.15,2013-02-15 01:40:00,
2013-02-15 15:49:00,62.3,45.9,30.16,SE,131,2.0,2.0,55,0.00,,,0.00,Wunderground v.1.15,2013-02-15 01:49:00,
2013-02-15 15:55:00,61.9,46.0,30.16,ESE,117,2.0,2.0,56,0.00,,,0.00,Wunderground v.1.15,2013-02-15 01:55:00,
2013-02-15 16:05:00,61.3,45.9,30.16,SE,124,2.0,2.0,57,0.00,,,0.00,Wunderground v.1.15,2013-02-15 02:05:00,
2013-02-15 16:14:00,60.7,45.8,30.16,ESE,108,1.0,1.0,58,0.00,,,0.00,Wunderground v.1.15,2013-02-15 02:14:00,
2013-02-15 16:25:00,60.3,45.9,30.16,SE,138,1.0,2.0,59,0.00,,,0.00,Wunderground v.1.15,2013-02-15 02:25:00,
2013-02-15 16:34:00,59.6,46.1,30.17,SSE,147,2.0,2.0,61,0.00,,,0.00,Wunderground v.1.15,2013-02-15 02:34:00,
2013-02-15 16:40:00,59.4,45.9,30.17,SE,134,1.0,1.0,61,0.00,,,0.00,Wunderground v.1.15,2013-02-15 02:40:00,
2013-02-15 16:50:00,59.1,46.1,30.17,SE,136,2.0,2.0,62,0.00,,,0.00,Wunderground v.1.15,2013-02-15 02:50:00,
2013-02-15 17:00:00,58.8,46.2,30.17,SSE,150,2.0,2.0,63,0.00,,,0.00,Wunderground v.1.15,2013-02-15 03:00:00,
2013-02-15 17:05:00,58.6,46.0,30.17,SE,143,1.0,2.0,63,0.00,,,0.00,Wunderground v.1.15,2013-02-15 03:05:00,
2013-02-15 17:14:00,58.1,46.0,30.17,SE,136,1.0,1.0,64,0.00,,,0.00,Wunderground v.1.15,2013-02-15 03:14:00,
2013-02-15 17:19:00,57.9,46.2,30.17,SE,132,1.0,1.0,65,0.00,,,0.00,Wunderground v.1.15,2013-02-15 03:19:00,
2013-02-15 17:25:00,57.8,46.1,30.17,ESE,113,1.0,1.0,65,0.00,,,0.00,Wunderground v.1.15,2013-02-15 03:25:00,
2013-02-15 17:34:00,57.3,46.0,30.17,ESE,115,1.0,2.0,66,0.00,,,0.00,Wunderground v.1.15,2013-02-15 03:34:00,
2013-02-15 17:40:00,57.0,46.1,30.17,SE,138,1.0,1.0,67,0.00,,,0.00,Wunderground v.1.15,2013-02-15 03:40:00,
2013-02-15 17:49:00,56.4,46.0,30.17,SE,143,1.0,1.0,68,0.00,,,0.00,Wunderground v.1.15,2013-02-15 03:49:00,
2013-02-15 17:55:00,56.2,45.8,30.17,SE,144,1.0,1.0,68,0.00,,,0.00,Wunderground v.1.15,2013-02-15 03:55:00,
2013-02-15 18:05:00,55.9,45.9,30.17,ESE,121,1.0,1.0,69,0.00,,,0.00,Wunderground v.1.15,2013-02-15 04:05:00,
2013-02-15 18:15:00,55.6,45.6,30.18,East,101,1.0,1.0,69,0.00,,,0.00,Wunderground v.1.15,2013-02-15 04:15:00,
2013-02-15 18:24:00,55.4,45.4,30.18,ESE,117,1.0,1.0,69,0.00,,,0.00,Wunderground v.1.15,2013-02-15 04:24:00,
2013-02-15 18:29:00,55.2,45.6,30.18,East,83,1.0,1.0,70,0.00,,,0.00,Wunderground v.1.15,2013-02-15 04:29:00,
2013-02-15 18:34:00,55.1,45.5,30.18,East,101,1.0,1.0,70,0.00,,,0.00,Wunderground v.1.15,2013-02-15 04:34:00,
2013-02-15 18:45:00,54.3,45.1,30.18,ENE,77,0.0,2.0,71,0.00,,,0.00,Wunderground v.1.15,2013-02-15 04:45:00,
2013-02-15 18:54:00,54.1,44.9,30.19,ESE,104,1.0,1.0,71,0.00,,,0.00,Wunderground v.1.15,2013-02-15 04:54:00,
2013-02-15 19:00:00,54.1,44.9,30.18,East,96,1.0,2.0,71,0.00,,,0.00,Wunderground v.1.15,2013-02-15 05:00:00,
2013-02-15 19:05:00,54.0,44.8,30.19,East,87,2.0,2.0,71,0.00,,,0.00,Wunderground v.1.15,2013-02-15 05:05:00,
2013-02-15 19:09:00,53.9,45.1,30.19,East,86,2.0,2.0,72,0.00,,,0.00,Wunderground v.1.15,2013-02-15 05:09:00,
2013-02-15 19:15:00,53.7,44.9,30.18,East,87,2.0,2.0,72,0.00,,,0.00,Wunderground v.1.15,2013-02-15 05:15:00,
2013-02-15 19:20:00,53.4,45.0,30.19,East,101,1.0,1.0,73,0.00,,,0.00,Wunderground v.1.15,2013-02-15 05:20:00,
2013-02-15 19:30:00,53.1,45.0,30.19,ENE,76,1.0,2.0,74,0.00,,,0.00,Wunderground v.1.15,2013-02-15 05:30:00,
2013-02-15 19:35:00,53.2,45.1,30.20,East,79,2.0,2.0,74,0.00,,,0.00,Wunderground v.1.15,2013-02-15 05:35:00,
2013-02-15 19:44:00,53.1,45.0,30.20,East,86,2.0,2.0,74,0.00,,,0.00,Wunderground v.1.15,2013-02-15 05:44:00,
2013-02-15 19:50:00,52.8,44.7,30.20,ENE,70,1.0,1.0,74,0.00,,,0.00,Wunderground v.1.15,2013-02-15 05:50:00,
2013-02-15 20:00:00,51.9,44.6,30.20,ENE,70,0.0,0.0,76,0.00,,,0.00,Wunderground v.1.15,2013-02-15 06:00:00,
2013-02-15 20:05:00,51.6,44.6,30.20,ENE,72,0.0,1.0,77,0.00,,,0.00,Wunderground v.1.15,2013-02-15 06:05:00,
2013-02-15 20:15:00,51.2,44.6,30.21,ENE,72,1.0,1.0,78,0.00,,,0.00,Wunderground v.1.15,2013-02-15 06:15:00,
2013-02-15 20:24:00,50.9,44.6,30.21,East,82,0.0,1.0,79,0.00,,,0.00,Wunderground v.1.15,2013-02-15 06:24:00,
2013-02-15 20:29:00,50.9,44.6,30.21,ENE,77,1.0,1.0,79,0.00,,,0.00,Wunderground v.1.15,2013-02-15 06:29:00,
2013-02-15 20:45:00,50.4,44.5,30.21,East,83,1.0,1.0,80,0.00,,,0.00,Wunderground v.1.15,2013-02-15 06:45:00,
2013-02-15 20:50:00,50.1,44.2,30.22,East,85,1.0,1.0,80,0.00,,,0.00,Wunderground v.1.15,2013-02-15 06:50:00,
2013-02-15 21:05:00,49.9,44.3,30.22,East,79,1.0,1.0,81,0.00,,,0.00,Wunderground v.1.15,2013-02-15 07:05:00,
2013-02-15 21:14:00,49.7,44.1,30.22,East,91,1.0,2.0,81,0.00,,,0.00,Wunderground v.1.15,2013-02-15 07:14:00,
2013-02-15 21:25:00,49.3,43.7,30.22,ENE,77,0.0,1.0,81,0.00,,,0.00,Wunderground v.1.15,2013-02-15 07:25:00,
2013-02-15 21:45:00,48.1,43.2,30.22,ENE,76,0.0,0.0,83,0.00,,,0.00,Wunderground v.1.15,2013-02-15 07:45:00,
2013-02-15 21:54:00,48.0,43.1,30.23,ENE,77,0.0,0.0,83,0.00,,,0.00,Wunderground v.1.15,2013-02-15 07:54:00,
2013-02-15 22:00:00,47.8,43.2,30.23,ENE,77,0.0,1.0,84,0.00,,,0.00,Wunderground v.1.15,2013-02-15 08:00:00,
2013-02-15 22:09:00,47.7,43.1,30.23,East,81,1.0,1.0,84,0.00,,,0.00,Wunderground v.1.15,2013-02-15 08:09:00,
2013-02-15 22:15:00,47.6,43.0,30.23,East,79,1.0,2.0,84,0.00,,,0.00,Wunderground v.1.15,2013-02-15 08:15:00,
2013-02-15 22:24:00,47.7,43.4,30.23,ENE,76,1.0,1.0,85,0.00,,,0.00,Wunderground v.1.15,2013-02-15 08:24:00,
2013-02-15 22:30:00,47.7,43.1,30.23,ENE,77,1.0,1.0,84,0.00,,,0.00,Wunderground v.1.15,2013-02-15 08:30:00,
2013-02-15 22:35:00,47.7,43.1,30.23,East,82,1.0,1.0,84,0.00,,,0.00,Wunderground v.1.15,2013-02-15 08:35:00,
2013-02-15 22:45:00,47.5,42.9,30.23,ENE,60,0.0,1.0,84,0.00,,,0.00,Wunderground v.1.15,2013-02-15 08:45:00,
2013-02-15 22:54:00,47.7,43.1,30.24,East,81,1.0,2.0,84,0.00,,,0.00,Wunderground v.1.15,2013-02-15 08:54:00,
2013-02-15 23:00:00,47.7,43.1,30.24,ENE,78,2.0,2.0,84,0.00,,,0.00,Wunderground v.1.15,2013-02-15 09:00:00,
2013-02-15 23:05:00,47.6,43.0,30.24,East,84,2.0,3.0,84,0.00,,,0.00,Wunderground v.1.15,2013-02-15 09:05:00,
2013-02-15 23:14:00,47.9,43.3,30.24,East,85,3.0,3.0,84,0.00,,,0.00,Wunderground v.1.15,2013-02-15 09:14:00,
2013-02-15 23:25:00,47.7,43.1,30.24,ENE,78,3.0,4.0,84,0.00,,,0.00,Wunderground v.1.15,2013-02-15 09:25:00,
2013-02-15 23:34:00,47.5,43.2,30.24,East,82,3.0,3.0,85,0.00,,,0.00,Wunderground v.1.15,2013-02-15 09:34:00,
2013-02-15 23:40:00,47.4,43.1,30.24,ENE,76,3.0,4.0,85,0.00,,,0.00,Wunderground v.1.15,2013-02-15 09:40:00,
2013-02-15 23:49:00,47.1,42.8,30.24,ENE,75,3.0,3.0,85,0.00,,,0.00,Wunderground v.1.15,2013-02-15 09:49:00,
2013-02-15 23:55:00,47.1,42.8,30.24,East,90,3.0,4.0,85,0.00,,,0.00,Wunderground v.1.15,2013-02-15 09:55:00,